createdAt,value
2018-04-22T04:00:40.165Z,726.13
2018-04-22T04:12:44.007Z,726.18
2018-04-22T04:14:15.347Z,726.04
2018-04-22T04:50:58.808Z,726.18
2018-04-22T05:02:42.470Z,726.34
2018-04-22T06:30:20.682Z,726.44
2018-04-22T06:44:05.186Z,726.34
2018-04-22T11:28:09.235Z,726.72
2018-04-22T11:31:42.849Z,726.65
2018-04-22T12:28:35.241Z,726.73
2018-04-22T12:44:07.985Z,726.71
2018-04-22T13:04:35.616Z,726.74
2018-04-22T13:05:36.836Z,726.70
2018-04-22T13:12:39.683Z,726.72
2018-04-22T13:27:43.117Z,726.63
2018-04-22T13:30:49.663Z,726.60
2018-04-22T13:36:46.746Z,726.54
2018-04-22T13:38:50.262Z,726.52
2018-04-22T13:40:49.145Z,726.50
2018-04-22T13:50:53.144Z,726.46
2018-04-22T13:51:53.768Z,726.49
2018-04-22T13:54:58.067Z,726.42
2018-04-22T13:59:00.638Z,726.43
2018-04-22T14:02:26.796Z,726.38
2018-04-22T14:03:38.809Z,726.39
2018-04-22T14:12:07.795Z,726.35
2018-04-22T14:13:03.032Z,726.36
2018-04-22T14:17:23.554Z,726.29
2018-04-22T14:57:03.750Z,726.27
2018-04-22T15:02:05.407Z,726.20
2018-04-22T15:03:13.604Z,726.14
2018-04-22T15:25:44.818Z,726.07
2018-04-22T15:30:47.522Z,726.08
2018-04-22T15:37:51.455Z,726.08
2018-04-22T15:38:53.547Z,726.10
2018-04-22T15:39:51.570Z,726.10
2018-04-22T15:43:53.730Z,726.11
2018-04-22T15:51:57.288Z,726.02
2018-04-22T15:52:58.566Z,726.02
2018-04-22T15:53:58.066Z,726.09
2018-04-22T15:55:01.812Z,726.01
2018-04-22T15:58:00.322Z,725.99
2018-04-22T16:00:00.661Z,726.01
2018-04-22T16:02:02.616Z,725.94
2018-04-22T16:05:03.279Z,725.99
2018-04-22T16:06:04.698Z,725.94
2018-04-22T16:07:07.281Z,725.98
2018-04-22T16:08:06.063Z,725.95
2018-04-22T16:09:05.050Z,725.95
2018-04-22T16:10:06.387Z,725.92
2018-04-22T16:11:06.263Z,725.92
2018-04-22T16:12:25.992Z,725.93
2018-04-22T16:16:08.832Z,725.91
2018-04-22T16:20:10.452Z,725.99
2018-04-22T16:21:12.057Z,725.93
2018-04-22T16:23:12.348Z,725.92
2018-04-22T16:24:13.012Z,725.89
2018-04-22T16:25:12.712Z,725.93
2018-04-22T16:26:12.746Z,725.95
2018-04-22T16:27:13.430Z,725.96
2018-04-22T16:28:13.696Z,725.92
2018-04-22T16:29:14.368Z,725.91
2018-04-22T16:30:14.638Z,726.03
2018-04-22T16:34:17.080Z,725.94
2018-04-22T16:36:17.831Z,725.93
2018-04-22T16:38:18.639Z,725.94
2018-04-22T16:40:19.780Z,725.92
2018-04-22T16:41:20.615Z,725.92
2018-04-22T16:43:21.028Z,725.95
2018-04-22T16:44:21.843Z,725.92
2018-04-22T16:45:23.517Z,725.95
2018-04-22T16:47:23.474Z,725.92
2018-04-22T16:48:23.408Z,725.93
2018-04-22T16:50:24.623Z,725.96
2018-04-22T16:51:24.679Z,725.98
2018-04-22T16:52:25.654Z,725.95
2018-04-22T16:54:26.466Z,725.93
2018-04-22T16:55:26.946Z,725.94
2018-04-22T16:56:27.250Z,725.96
2018-04-22T16:57:28.580Z,725.91
2018-04-22T16:58:28.580Z,725.90
2018-04-22T16:59:28.646Z,725.95
2018-04-22T17:02:33.912Z,725.88
2018-04-22T17:03:30.556Z,725.94
2018-04-22T17:05:31.551Z,725.88
2018-04-22T17:06:32.524Z,725.93
2018-04-22T17:10:35.095Z,725.91
2018-04-22T17:11:34.759Z,725.87
2018-04-22T17:12:34.631Z,725.85
2018-04-22T17:13:35.542Z,725.90
2018-04-22T17:14:35.573Z,725.94
2018-04-22T17:16:36.734Z,725.92
2018-04-22T17:17:38.756Z,725.93
2018-04-22T17:18:37.474Z,725.96
2018-04-22T17:20:38.824Z,725.93
2018-04-22T17:21:38.896Z,725.94
2018-04-22T17:22:39.368Z,725.94
2018-04-22T17:24:40.314Z,725.90
2018-04-22T17:25:40.789Z,725.90
2018-04-22T17:28:42.207Z,725.95
2018-04-22T17:29:42.718Z,725.87
2018-04-22T17:30:43.160Z,725.93
2018-04-22T17:31:43.902Z,725.95
2018-04-22T17:32:44.446Z,725.92
2018-04-22T17:34:45.045Z,725.94
2018-04-22T17:35:45.514Z,725.91
2018-04-22T17:36:45.988Z,725.94
2018-04-22T17:37:46.661Z,726.01
2018-04-22T17:38:47.140Z,725.97
2018-04-22T17:40:48.272Z,725.96
2018-04-22T17:41:49.555Z,725.98
2018-04-22T17:42:48.820Z,726.00
2018-04-22T17:43:49.294Z,726.02
2018-04-22T17:44:50.108Z,725.98
2018-04-22T17:45:50.290Z,726.02
2018-04-22T17:47:51.179Z,726.02
2018-04-22T17:48:51.653Z,726.04
2018-04-22T17:49:52.330Z,726.07
2018-04-22T17:50:53.403Z,726.03
2018-04-22T17:51:53.270Z,726.03
2018-04-22T17:52:53.582Z,726.04
2018-04-22T17:53:54.016Z,726.03
2018-04-22T17:54:54.689Z,726.06
2018-04-22T17:55:55.161Z,726.09
2018-04-22T17:56:55.634Z,726.06
2018-04-22T17:58:56.582Z,726.05
2018-04-22T17:59:57.053Z,726.12
2018-04-22T18:00:57.382Z,726.08
2018-04-22T18:01:57.801Z,726.09
2018-04-22T18:03:58.750Z,726.14
2018-04-22T18:04:59.221Z,726.14
2018-04-22T18:07:00.208Z,726.16
2018-04-22T18:08:00.649Z,726.08
2018-04-22T18:09:01.125Z,726.13
2018-04-22T18:10:01.807Z,726.09
2018-04-22T18:11:02.071Z,726.13
2018-04-22T18:13:03.431Z,726.18
2018-04-22T18:15:04.177Z,726.16
2018-04-22T18:17:05.535Z,726.22
2018-04-22T18:18:05.414Z,726.18
2018-04-22T18:19:06.088Z,726.21
2018-04-22T18:20:06.359Z,726.21
2018-04-22T18:21:06.882Z,726.18
2018-04-22T18:22:07.511Z,726.17
2018-04-22T18:23:07.989Z,726.27
2018-04-22T18:27:09.694Z,726.21
2018-04-22T18:28:10.168Z,726.16
2018-04-22T18:29:10.642Z,726.15
2018-04-22T18:30:11.522Z,726.24
2018-04-22T18:31:11.794Z,726.25
2018-04-22T18:32:12.272Z,726.22
2018-04-22T18:33:12.554Z,726.24
2018-04-22T18:34:13.018Z,726.26
2018-04-22T18:36:14.425Z,726.30
2018-04-22T18:37:14.446Z,726.29
2018-04-22T18:38:15.125Z,726.27
2018-04-22T18:39:15.395Z,726.31
2018-04-22T18:40:16.068Z,726.34
2018-04-22T18:41:16.393Z,726.34
2018-04-22T18:42:17.019Z,726.35
2018-04-22T18:43:17.290Z,726.29
2018-04-22T18:44:17.974Z,726.31
2018-04-22T18:45:18.242Z,726.37
2018-04-22T18:46:18.711Z,726.35
2018-04-22T18:47:19.395Z,726.37
2018-04-22T18:48:19.658Z,726.33
2018-04-22T18:49:20.739Z,726.36
2018-04-22T18:50:20.810Z,726.41
2018-04-22T18:52:21.754Z,726.37
2018-04-22T18:55:23.172Z,726.35
2018-04-22T18:57:24.115Z,726.42
2018-04-22T18:58:24.386Z,726.34
2018-04-22T19:00:25.332Z,726.38
2018-04-22T19:03:26.949Z,726.38
2018-04-22T19:04:27.220Z,726.35
2018-04-22T19:05:27.894Z,726.35
2018-04-22T19:06:28.417Z,726.38
2018-04-22T19:07:28.633Z,726.41
2018-04-22T19:08:30.305Z,726.39
2018-04-22T19:09:29.594Z,726.40
2018-04-22T19:10:30.253Z,726.45
2018-04-22T19:12:31.481Z,726.42
2018-04-22T19:13:31.673Z,726.38
2018-04-22T19:14:32.147Z,726.41
2018-04-22T19:15:32.412Z,726.43
2018-04-22T19:16:32.885Z,726.43
2018-04-22T19:17:33.360Z,726.44
2018-04-22T19:18:33.843Z,726.36
2018-04-22T19:19:34.305Z,726.46
2018-04-22T19:20:34.980Z,726.49
2018-04-22T19:23:37.396Z,726.45
2018-04-22T19:25:37.149Z,726.50
2018-04-22T19:26:38.081Z,726.48
2018-04-22T19:27:38.100Z,726.47
2018-04-22T19:28:38.777Z,726.48
2018-04-22T19:29:39.455Z,726.46
2018-04-22T19:30:39.930Z,726.54
2018-04-22T19:32:40.477Z,726.52
2018-04-22T19:33:40.950Z,726.54
2018-04-22T19:34:41.865Z,726.51
2018-04-22T19:35:41.902Z,726.49
2018-04-22T19:36:42.429Z,726.49
2018-04-22T19:37:42.856Z,726.50
2018-04-22T19:41:44.813Z,726.48
2018-04-22T19:42:45.239Z,726.50
2018-04-22T19:43:45.708Z,726.51
2018-04-22T19:44:47.384Z,726.62
2018-04-22T19:45:47.064Z,726.54
2018-04-22T19:48:48.296Z,726.55
2018-04-22T19:50:49.041Z,726.53
2018-04-22T19:52:50.467Z,726.55
2018-04-22T19:53:50.465Z,726.52
2018-04-22T19:54:51.143Z,726.48
2018-04-22T19:55:51.616Z,726.52
2018-04-22T19:56:52.089Z,726.49
2018-04-22T19:58:53.110Z,726.54
2018-04-22T19:59:53.307Z,726.57
2018-04-22T20:00:53.782Z,726.53
2018-04-22T20:03:55.205Z,726.58
2018-04-22T20:04:55.877Z,726.54
2018-04-22T20:06:56.621Z,726.56
2018-04-22T20:07:57.301Z,726.59
2018-04-22T20:08:57.574Z,726.54
2018-04-22T20:09:58.250Z,726.53
2018-04-22T20:10:58.589Z,726.58
2018-04-22T20:14:00.135Z,726.56
2018-04-22T20:15:00.612Z,726.61
2018-04-22T20:17:01.547Z,726.63
2018-04-22T20:18:01.821Z,726.58
2018-04-22T20:19:02.775Z,726.58
2018-04-22T20:20:03.167Z,726.57
2018-04-22T20:21:03.234Z,726.64
2018-04-22T20:22:03.764Z,726.59
2018-04-22T20:23:04.382Z,726.64
2018-04-22T20:24:04.689Z,726.59
2018-04-22T20:25:05.198Z,726.53
2018-04-22T20:26:06.001Z,726.58
2018-04-22T20:27:06.333Z,726.59
2018-04-22T20:28:06.947Z,726.59
2018-04-22T20:29:08.629Z,726.61
2018-04-22T20:31:09.373Z,726.56
2018-04-22T20:32:08.633Z,726.56
2018-04-22T20:33:08.908Z,726.56
2018-04-22T20:34:09.382Z,726.56
2018-04-22T20:36:10.321Z,726.54
2018-04-22T20:38:11.271Z,726.58
2018-04-22T20:39:11.947Z,726.53
2018-04-22T20:40:12.218Z,726.55
2018-04-22T20:42:13.219Z,726.55
2018-04-22T20:44:15.811Z,726.52
2018-04-22T20:46:15.674Z,726.57
2018-04-22T20:48:16.228Z,726.57
2018-04-22T20:49:16.497Z,726.61
2018-04-22T20:50:17.177Z,726.57
2018-04-22T20:51:17.447Z,726.60
2018-04-22T20:53:19.005Z,726.53
2018-04-22T20:55:19.349Z,726.61
2018-04-22T20:56:19.826Z,726.56
2018-04-22T20:57:20.350Z,726.57
2018-04-22T20:58:20.778Z,726.57
2018-04-22T20:59:21.657Z,726.54
2018-04-22T21:00:21.731Z,726.53
2018-04-22T21:01:22.203Z,726.55
2018-04-22T21:02:23.080Z,726.59
2018-04-22T21:03:23.373Z,726.52
2018-04-22T21:04:23.627Z,726.51
2018-04-22T21:05:24.308Z,726.53
2018-04-22T21:06:24.780Z,726.57
2018-04-22T21:07:25.304Z,726.58
2018-04-22T21:08:25.731Z,726.54
2018-04-22T21:09:26.001Z,726.54
2018-04-22T21:11:27.150Z,726.54
2018-04-22T21:13:28.095Z,726.50
2018-04-22T21:14:28.368Z,726.55
2018-04-22T21:15:29.042Z,726.54
2018-04-22T21:16:29.313Z,726.49
2018-04-22T21:17:30.443Z,726.54
2018-04-22T21:18:30.460Z,726.50
2018-04-22T21:20:31.405Z,726.51
2018-04-22T21:21:31.883Z,726.46
2018-04-22T21:23:32.623Z,726.53
2018-04-22T21:24:33.295Z,726.58
2018-04-22T21:25:33.767Z,726.51
2018-04-22T21:26:34.643Z,726.51
2018-04-22T21:28:34.990Z,726.50
2018-04-22T21:29:35.696Z,726.55
2018-04-22T21:30:35.923Z,726.53
2018-04-22T21:31:36.394Z,726.57
2018-04-22T21:32:37.275Z,726.54
2018-04-22T21:33:37.339Z,726.53
2018-04-22T21:34:38.012Z,726.47
2018-04-22T21:36:38.753Z,726.56
2018-04-22T21:37:39.227Z,726.51
2018-04-22T21:38:39.697Z,726.54
2018-04-22T21:39:40.372Z,726.54
2018-04-22T21:40:40.843Z,726.55
2018-04-22T21:41:41.316Z,726.56
2018-04-22T21:43:42.064Z,726.53
2018-04-22T21:44:42.734Z,726.51
2018-04-22T21:45:43.005Z,726.48
2018-04-22T21:46:43.680Z,726.51
2018-04-22T21:47:43.955Z,726.49
2018-04-22T21:48:44.425Z,726.50
2018-04-22T21:49:44.897Z,726.56
2018-04-22T21:50:45.391Z,726.54
2018-04-22T21:52:46.318Z,726.47
2018-04-22T21:53:46.793Z,726.51
2018-04-22T21:54:47.268Z,726.54
2018-04-22T21:55:47.745Z,726.55
2018-04-22T21:56:48.226Z,726.50
2018-04-22T21:57:48.892Z,726.52
2018-04-22T21:59:49.845Z,726.45
2018-04-22T22:00:50.117Z,726.54
2018-04-22T22:01:50.596Z,726.49
2018-04-22T22:02:51.068Z,726.49
2018-04-22T22:03:51.547Z,726.51
2018-04-22T22:04:52.222Z,726.54
2018-04-22T22:05:52.507Z,726.57
2018-04-22T22:06:53.171Z,726.55
2018-04-22T22:08:54.123Z,726.49
2018-04-22T22:09:54.394Z,726.50
2018-04-22T22:10:54.875Z,726.58
2018-04-22T22:11:56.547Z,726.53
2018-04-22T22:12:55.818Z,726.56
2018-04-22T22:13:56.642Z,726.55
2018-04-22T22:14:56.771Z,726.59
2018-04-22T22:15:57.243Z,726.53
2018-04-22T22:16:57.718Z,726.55
2018-04-22T22:17:58.603Z,726.57
2018-04-22T22:19:59.143Z,726.59
2018-04-22T22:20:59.612Z,726.54
2018-04-22T22:22:00.289Z,726.52
2018-04-22T22:23:00.768Z,726.58
2018-04-22T22:25:01.922Z,726.57
2018-04-22T22:26:01.982Z,726.54
2018-04-22T22:27:02.458Z,726.56
2018-04-22T22:28:02.930Z,726.55
2018-04-22T22:29:03.467Z,726.51
2018-04-22T22:30:03.871Z,726.50
2018-04-22T22:31:04.341Z,726.53
2018-04-22T22:32:04.814Z,726.53
2018-04-22T22:33:05.284Z,726.52
2018-04-22T22:34:05.756Z,726.52
2018-04-22T22:35:06.227Z,726.49
2018-04-22T22:36:06.702Z,726.50
2018-04-22T22:37:07.374Z,726.52
2018-04-22T22:38:07.846Z,726.46
2018-04-22T22:39:08.113Z,726.54
2018-04-22T22:40:08.589Z,726.56
2018-04-22T22:41:09.059Z,726.51
2018-04-22T22:42:09.527Z,726.50
2018-04-22T22:43:10.251Z,726.57
2018-04-22T22:44:10.673Z,726.53
2018-04-22T22:47:11.908Z,726.52
2018-04-22T22:48:12.561Z,726.54
2018-04-22T22:49:12.832Z,726.55
2018-04-22T22:50:13.507Z,726.47
2018-04-22T22:51:13.775Z,726.45
2018-04-22T22:52:14.246Z,726.45
2018-04-22T22:53:14.771Z,726.51
2018-04-22T22:54:15.190Z,726.44
2018-04-22T22:55:15.662Z,726.52
2018-04-22T22:56:16.542Z,726.41
2018-04-22T22:57:17.017Z,726.48
2018-04-22T22:58:17.137Z,726.48
2018-04-22T22:59:17.758Z,726.46
2018-04-22T23:00:18.033Z,726.43
2018-04-22T23:03:19.494Z,726.40
2018-04-22T23:04:20.128Z,726.42
2018-04-22T23:05:20.404Z,726.44
2018-04-22T23:07:21.353Z,726.42
2018-04-22T23:08:22.229Z,726.46
2018-04-22T23:09:22.499Z,726.45
2018-04-22T23:10:23.318Z,726.51
2018-04-22T23:12:23.726Z,726.44
2018-04-22T23:13:24.402Z,726.45
2018-04-22T23:14:24.674Z,726.46
2018-04-22T23:15:25.959Z,726.43
2018-04-22T23:16:26.029Z,726.35
2018-04-22T23:19:27.258Z,726.38
2018-04-22T23:20:27.727Z,726.46
2018-04-22T23:21:27.998Z,726.42
2018-04-22T23:22:28.472Z,726.48
2018-04-22T23:23:29.153Z,726.41
2018-04-22T23:24:29.827Z,726.42
2018-04-22T23:25:29.896Z,726.48
2018-04-22T23:28:31.524Z,726.44
2018-04-22T23:29:31.998Z,726.45
2018-04-22T23:31:32.741Z,726.48
2018-04-22T23:32:33.211Z,726.42
2018-04-22T23:33:33.682Z,726.45
2018-04-22T23:35:34.635Z,726.43
2018-04-22T23:36:35.306Z,726.38
2018-04-22T23:37:35.778Z,726.43
2018-04-22T23:39:36.520Z,726.41
2018-04-22T23:40:36.989Z,726.33
2018-04-22T23:41:37.464Z,726.42
2018-04-22T23:42:37.934Z,726.39
2018-04-22T23:43:38.455Z,726.42
2018-04-22T23:44:39.081Z,726.48
2018-04-22T23:45:39.348Z,726.39
2018-04-22T23:46:39.820Z,726.40
2018-04-22T23:47:41.495Z,726.35
2018-04-22T23:49:41.235Z,726.43
2018-04-22T23:51:42.180Z,726.31
2018-04-22T23:52:42.851Z,726.37
2018-04-22T23:53:43.268Z,726.35
2018-04-22T23:54:43.994Z,726.42
2018-04-22T23:55:44.264Z,726.29
2018-04-22T23:56:44.533Z,726.39
2018-04-22T23:57:45.206Z,726.32
2018-04-22T23:59:46.757Z,726.36
